This is the latest recevied weather packets stored in our database for station/object EA7JCM-13. If no packets are shown the sender has not sent any weather packets the latest 1 day(s).
| Time | Temp. | Humidity | Pressure | Rain* | Wind** | Luminosity | Snow |
|---|---|---|---|---|---|---|---|
| 1778066402 | 19.44° C | 36% | 1008.3 hPa | 0 mm | - | - | - |
| 1778065503 | 20° C | 37% | 1008.4 hPa | 0 mm | - | - | - |
| 1778064903 | 20° C | 35% | 1008.5 hPa | 0 mm | - | - | - |
| 1778064302 | 18.89° C | 33% | 1008.8 hPa | 0 mm | - | - | - |
| 1778064002 | 19.44° C | 38% | 1008.6 hPa | 0 mm | - | - | - |
| 1778061302 | 17.78° C | 47% | 1008.8 hPa | 0 mm | - | - | - |
| 1778060702 | 18.33° C | 43% | 1008.8 hPa | 0 mm | - | - | - |
| 1778060102 | 18.33° C | 45% | 1008.9 hPa | 0 mm | - | - | - |
| 1778059502 | 17.78° C | 47% | 1009 hPa | 0 mm | - | - | - |
| 1778059202 | 17.22° C | 48% | 1008.9 hPa | 0 mm | - | - | - |
| 1778058302 | 17.78° C | 47% | 1008.7 hPa | 0 mm | - | - | - |
| 1778057402 | 17.78° C | 47% | 1009 hPa | 0 mm | - | - | - |
| 1778056502 | 17.22° C | 47% | 1008.9 hPa | 0 mm | - | - | - |
| 1778055604 | 16.67° C | 47% | 1008.8 hPa | 0 mm | - | - | - |
| 1778053502 | 15° C | 54% | 1008.8 hPa | 0 mm | - | - | - |
| 1778052602 | 15° C | 52% | 1008.8 hPa | 0 mm | - | - | - |
| 1778051702 | 15.56° C | 47% | 1009 hPa | 0 mm | - | - | - |
| 1778050503 | 15° C | 51% | 1008.7 hPa | 0 mm | - | - | - |
| 1778048103 | 10.56° C | 66% | 1008.9 hPa | 0 mm | - | - | - |
| 1778047802 | 10° C | 66% | 1008.8 hPa | 0 mm | - | - | - |
| 1778046903 | 8.89° C | 71% | 1008.6 hPa | 0 mm | - | - | - |
| 1778046602 | 8.89° C | 71% | 1008.7 hPa | 0 mm | - | - | - |
| 1778045703 | 9.44° C | 70% | 1008.7 hPa | 0 mm | - | - | - |
| 1778045402 | 9.44° C | 69% | 1008.5 hPa | 0 mm | - | - | - |
| 1778044502 | 9.44° C | 67% | 1008.7 hPa | 0 mm | - | - | - |
* Rain latest hour (hover to see other rain measurements)
** Current wind speed in m/s (hover to see current wind gust speed)